Flight Track Log - Related Links

Times and Time Zones

All times are in EDT time to prevent confusion due to time zone crossing. See the UAL3589 flight status page for this flight to view local times or setup timezone preferences in your user account.

Time Position Orientation Groundspeed Altitude Reporting Facility
EDT Latitude Longitude Course Direction KTS MPH feet Rate Location/Type
Fri 06:39:54 AM 42.4308 -76.3161 117° Southeast 173 199 5,100  Level New York Center
Fri 06:41:04 AM 42.4036 -76.2364 115° Southeast 176 203 6,700 1,431 Climbing Boston Center
Fri 06:42:04 AM 42.3767 -76.1644 117° Southeast 193 222 8,200 1,500 Climbing Boston Center
Fri 06:43:00 AM 42.2746 -75.8988 119° Southeast  Level FlightAware Approximate
Fri 06:43:04 AM 42.3481 -76.0839 116° Southeast 219 252 9,700  Level Boston Center
Fri 06:44:00 AM 42.2449 -75.8278 119° Southeast  Level FlightAware Approximate
Fri 06:44:04 AM 42.3231 -76.0208 118° Southeast 214 246 11,100  Level Boston Center
Fri 06:45:00 AM 42.2164 -75.7559 117° Southeast  Level FlightAware Approximate
Fri 06:45:04 AM 42.2925 -75.9347 116° Southeast 219 252 12,100  Level Boston Center
Fri 06:46:04 AM 42.2597 -75.8458 116° Southeast 232 267 13,400 1,350 Climbing Boston Center
Fri 06:47:04 AM 42.2308 -75.7658 116° Southeast 237 273 14,800 800 Climbing Boston Center
Fri 06:48:04 AM 42.1997 -75.6800 116° Southeast 243 280 15,000 100 Climbing Boston Center
Fri 06:49:04 AM 42.1650 -75.5831 116° Southeast 264 304 15,000  Level Boston Center
Fri 06:50:04 AM 42.1281 -75.4831 116° Southeast 280 322 15,000  Level Boston Center
Fri 06:51:04 AM 42.0992 -75.4006 115° Southeast 291 335 15,000  Level Boston Center
Fri 06:52:04 AM 42.0581 -75.2953 118° Southeast 291 335 15,000 50 Level Boston Center
Fri 06:53:04 AM 42.0208 -75.1956 117° Southeast 291 335 15,100  Climbing Boston Center
Fri 06:54:04 AM 41.9778 -75.0850 118° Southeast 291 335 15,000 -50 Descending Boston Center
Fri 06:55:04 AM 41.9383 -74.9883 119° Southeast 291 335 15,000 -100 Level Boston Center
Fri 06:56:04 AM 41.9025 -74.9003 119° Southeast 291 335 14,800 -1,150 Descending Boston Center
Fri 06:57:04 AM 41.8247 -74.8389 150° Southeast 292 336 12,700 -1,900 Descending Boston Center
Fri 06:58:04 AM 41.7567 -74.8028 158° South 298 343 11,000 -1,650 Descending Boston Center
Fri 06:59:04 AM 41.6869 -74.7558 153° Southeast 274 315 9,400 -1,350 Descending Boston Center
Fri 07:00:04 AM 41.6314 -74.7203 154° Southeast 260 299 8,300 -1,200 Descending Boston Center
Fri 07:01:04 AM 41.5611 -74.6792 156° South 250 288 7,000 -1,150 Descending Boston Center
Fri 07:02:04 AM 41.5036 -74.6467 157° South 250 288 6,000 -500 Descending Boston Center
Fri 07:03:04 AM 41.4375 -74.6083 157° South 244 281 6,000  Level Boston Center
Fri 07:04:22 AM 41.3500 -74.6167 184° South 230 265 6,000  Level New York TRACON
Fri 07:05:22 AM 41.3000 -74.6167 180° South 243 280 6,000  Level New York TRACON
Fri 07:06:16 AM 41.2333 -74.6000 169° South 245 282 6,000  Level New York TRACON
Fri 07:07:10 AM 41.1667 -74.5833 169° South 250 288 6,000  Level New York TRACON
Fri 07:08:10 AM 41.1000 -74.5667 169° South 249 287 6,000 -53 Level New York TRACON
Fri 07:09:04 AM 41.0333 -74.5500 169° South 249 287 5,900 -526 Descending New York TRACON
Fri 07:10:04 AM 40.9667 -74.5500 180° South 256 295 5,000 -450 Descending New York TRACON
Fri 07:11:04 AM 40.9000 -74.5333 169° South 248 285 5,000  Level New York TRACON
Fri 07:11:58 AM 40.8333 -74.5333 180° South 249 287 5,000  Level New York TRACON
Fri 07:12:58 AM 40.7667 -74.5167 169° South 248 285 5,000  Level New York TRACON
Fri 07:13:58 AM 40.7000 -74.5000 169° South 248 285 5,000  Level New York TRACON
Fri 07:14:52 AM 40.6333 -74.5000 180° South 250 288 5,000  Level New York TRACON
Fri 07:15:52 AM 40.5667 -74.4667 159° South 254 292 5,000 -350 Level New York TRACON
Fri 07:16:52 AM 40.5167 -74.4167 143° Southeast 251 289 4,300 -850 Descending New York TRACON
Fri 07:17:52 AM 40.5000 -74.3333 105° East 254 292 3,300 -684 Descending New York TRACON
Fri 07:18:46 AM 40.5333 -74.2667 57° Northeast 214 246 3,000 -474 Descending New York TRACON
Fri 07:19:46 AM 40.5833 -74.2333 27° Northeast 193 222 2,400 -850 Descending New York TRACON
Fri 07:20:46 AM 40.6167 -74.2167 21° North 140 161 1,300 -800 Descending New York TRACON
Fri 07:21:46 AM 40.6500 -74.2000 21° North 115 132 800 -500 Descending New York TRACON
Fri 07:23:00 AM 40.6833 -74.1667 21° North  Level FlightAware Approximate
Fri 07:30:00 AM 40.6925 -74.1687 21° North  Level Estimated

Login

Don't have an account? Register now (free) for customized features, flight alerts, and more!